createdAt,value
2023-05-08T00:01:54.996Z,10.75
2023-05-08T00:04:24.574Z,10.93
2023-05-08T00:06:54.388Z,10.20
2023-05-08T00:09:24.030Z,11.30
2023-05-08T00:11:53.548Z,11.48
2023-05-08T00:14:23.132Z,10.80
2023-05-08T00:16:55.271Z,11.38
2023-05-08T00:19:24.864Z,10.45
2023-05-08T00:21:54.357Z,11.90
2023-05-08T00:24:23.892Z,11.05
2023-05-08T00:26:53.624Z,11.82
2023-05-08T00:29:23.152Z,11.13
2023-05-08T00:31:55.301Z,10.77
2023-05-08T00:34:24.875Z,10.98
2023-05-08T00:36:54.627Z,11.40
2023-05-08T00:39:24.127Z,11.23
2023-05-08T00:41:53.694Z,11.27
2023-05-08T00:44:23.248Z,11.43
2023-05-08T00:46:55.420Z,11.27
2023-05-08T00:49:25.380Z,10.98
2023-05-08T00:51:58.314Z,11.32
2023-05-08T00:54:29.861Z,11.65
2023-05-08T00:56:59.860Z,12.23
2023-05-08T00:59:29.823Z,10.82
2023-05-08T01:02:03.746Z,10.88
2023-05-08T01:04:34.612Z,11.00
2023-05-08T01:07:04.842Z,11.23
2023-05-08T01:09:34.604Z,11.27
2023-05-08T01:12:13.615Z,10.40
2023-05-08T01:15:05.074Z,11.70
2023-05-08T01:17:59.149Z,10.65
2023-05-08T01:20:38.190Z,11.02
2023-05-08T01:23:42.321Z,11.73
2023-05-08T01:26:45.732Z,11.75
2023-05-08T01:29:39.685Z,11.50
2023-05-08T01:32:20.069Z,12.43
2023-05-08T01:35:00.288Z,11.27
2023-05-08T01:37:42.329Z,12.30
2023-05-08T01:40:20.193Z,12.52
2023-05-08T01:42:53.533Z,12.25
2023-05-08T01:45:28.496Z,11.85
2023-05-08T01:48:06.373Z,11.80
2023-05-08T01:50:41.190Z,11.82
2023-05-08T01:53:17.129Z,12.05
2023-05-08T01:55:50.751Z,11.43
2023-05-08T01:58:21.604Z,10.57
2023-05-08T02:00:52.748Z,11.27
2023-05-08T02:03:26.708Z,10.30
2023-05-08T02:05:58.417Z,10.07
2023-05-08T02:08:29.424Z,10.40
2023-05-08T02:11:00.662Z,11.23
2023-05-08T02:13:31.939Z,10.75
2023-05-08T02:16:03.163Z,10.95
2023-05-08T02:18:37.122Z,10.70
2023-05-08T02:21:09.638Z,10.30
2023-05-08T02:23:39.714Z,10.10
2023-05-08T02:26:09.642Z,10.38
2023-05-08T02:28:39.822Z,9.93
2023-05-08T02:31:10.851Z,10.57
2023-05-08T02:33:45.163Z,11.25
2023-05-08T02:36:18.967Z,10.65
2023-05-08T02:38:53.091Z,10.73
2023-05-08T02:41:24.063Z,10.90
2023-05-08T02:43:54.278Z,10.40
2023-05-08T02:46:28.542Z,9.55
2023-05-08T02:49:04.718Z,10.38
2023-05-08T02:54:13.564Z,10.02
2023-05-08T02:56:53.254Z,9.52
2023-05-08T02:59:30.943Z,9.85
2023-05-08T03:02:07.621Z,9.27
2023-05-08T03:04:45.086Z,10.70
2023-05-08T03:07:15.849Z,9.70
2023-05-08T03:09:50.223Z,9.40
2023-05-08T03:12:24.905Z,9.93
2023-05-08T03:15:03.016Z,9.82
2023-05-08T03:17:35.352Z,9.10
2023-05-08T03:20:11.089Z,10.15
2023-05-08T03:22:43.574Z,9.45
2023-05-08T03:25:16.184Z,10.07
2023-05-08T03:27:47.815Z,9.50
2023-05-08T03:30:19.032Z,10.00
2023-05-08T03:32:49.687Z,10.07
2023-05-08T03:35:22.945Z,9.77
2023-05-08T03:37:53.211Z,10.27
2023-05-08T03:40:22.950Z,10.60
2023-05-08T03:42:53.295Z,9.70
2023-05-08T03:45:23.526Z,8.32
2023-05-08T03:47:55.864Z,6.93
2023-05-08T03:50:28.364Z,6.80
2023-05-08T03:52:58.880Z,5.35
2023-05-08T03:55:28.688Z,4.97
2023-05-08T03:58:04.512Z,5.65
2023-05-08T04:00:44.602Z,6.40
2023-05-08T04:03:33.388Z,6.00
2023-05-08T04:06:14.148Z,5.97
2023-05-08T04:08:47.782Z,6.20
2023-05-08T04:11:28.164Z,5.70
2023-05-08T04:14:03.327Z,5.90
2023-05-08T04:16:38.692Z,6.43
2023-05-08T04:19:14.480Z,5.60
2023-05-08T04:21:48.558Z,6.20
2023-05-08T04:24:20.071Z,6.03
2023-05-08T04:26:49.815Z,6.07
2023-05-08T04:29:20.581Z,4.40
2023-05-08T04:31:51.075Z,4.82
2023-05-08T04:34:23.684Z,3.90
2023-05-08T04:36:56.005Z,5.20
2023-05-08T04:39:25.596Z,4.13
2023-05-08T04:41:55.917Z,5.38
2023-05-08T04:44:25.750Z,5.05
2023-05-08T04:46:55.290Z,5.53
2023-05-08T04:49:24.855Z,4.82
2023-05-08T04:51:56.969Z,5.15
2023-05-08T04:54:26.618Z,5.13
2023-05-08T04:56:56.131Z,3.58
2023-05-08T04:59:26.024Z,4.60
2023-05-08T05:01:55.616Z,4.35
2023-05-08T05:04:25.274Z,4.97
2023-05-08T05:06:57.401Z,4.68
2023-05-08T05:09:26.928Z,4.63
2023-05-08T05:11:57.589Z,4.85
2023-05-08T05:14:27.780Z,4.78
2023-05-08T05:16:57.274Z,4.72
2023-05-08T05:19:27.362Z,4.35
2023-05-08T05:22:00.090Z,4.80
2023-05-08T05:24:29.624Z,4.85
2023-05-08T05:27:00.674Z,5.13
2023-05-08T05:29:30.458Z,4.90
2023-05-08T05:32:00.014Z,5.03
2023-05-08T05:34:29.951Z,5.32
2023-05-08T05:37:02.050Z,4.47
2023-05-08T05:39:31.543Z,4.35
2023-05-08T05:42:01.204Z,4.93
2023-05-08T05:44:30.743Z,4.82
2023-05-08T05:47:00.603Z,4.68
2023-05-08T05:49:30.210Z,3.67
2023-05-08T05:52:02.325Z,5.60
2023-05-08T05:54:31.934Z,4.85
2023-05-08T05:57:01.463Z,4.70
2023-05-08T05:59:30.961Z,4.03
2023-05-08T06:02:00.601Z,4.72
2023-05-08T06:04:30.415Z,3.70
2023-05-08T06:07:02.636Z,5.00
2023-05-08T06:09:32.190Z,4.80
2023-05-08T06:12:02.076Z,5.35
2023-05-08T06:14:31.596Z,4.80
2023-05-08T06:17:01.178Z,4.95
2023-05-08T06:19:30.702Z,5.78
2023-05-08T06:22:02.910Z,4.43
2023-05-08T06:24:32.517Z,5.05
2023-05-08T06:27:02.068Z,4.43
2023-05-08T06:29:31.606Z,4.65
2023-05-08T06:32:01.281Z,5.03
2023-05-08T06:34:31.660Z,4.32
2023-05-08T06:37:03.809Z,4.95
2023-05-08T06:39:33.285Z,4.70
2023-05-08T06:42:02.834Z,4.90
2023-05-08T06:44:32.380Z,5.30
2023-05-08T06:47:01.921Z,3.45
2023-05-08T06:49:31.542Z,4.82
2023-05-08T06:52:03.698Z,4.78
2023-05-08T06:54:33.249Z,5.15
2023-05-08T06:57:02.792Z,4.00
2023-05-08T06:59:32.329Z,4.97
2023-05-08T07:02:01.981Z,3.42
2023-05-08T07:04:32.272Z,4.60
2023-05-08T07:07:06.946Z,4.15
2023-05-08T07:09:36.548Z,4.40
2023-05-08T07:12:06.271Z,4.53
2023-05-08T07:14:35.805Z,4.65
2023-05-08T07:17:09.397Z,5.22
2023-05-08T07:19:39.489Z,4.20
2023-05-08T07:22:11.703Z,5.50
2023-05-08T07:24:41.268Z,4.72
2023-05-08T07:27:11.154Z,5.20
2023-05-08T07:29:41.353Z,5.25
2023-05-08T07:32:11.202Z,5.05
2023-05-08T07:34:40.899Z,5.40
2023-05-08T07:37:13.089Z,5.00
2023-05-08T07:39:42.688Z,5.22
2023-05-08T07:42:12.651Z,3.20
2023-05-08T07:44:53.633Z,4.85
2023-05-08T07:47:24.310Z,4.13
2023-05-08T07:49:53.803Z,4.28
2023-05-08T07:52:25.927Z,3.92
2023-05-08T07:54:55.476Z,3.53
2023-05-08T07:57:25.016Z,3.97
2023-05-08T07:59:54.507Z,4.05
2023-05-08T08:02:24.233Z,3.78
2023-05-08T08:04:53.792Z,3.60
2023-05-08T08:07:25.939Z,3.50
2023-05-08T08:09:55.937Z,4.05
2023-05-08T08:12:25.474Z,4.72
2023-05-08T08:14:55.217Z,3.30
2023-05-08T08:17:26.908Z,3.20
2023-05-08T08:19:58.148Z,3.28
2023-05-08T08:22:30.321Z,3.67
2023-05-08T08:25:00.018Z,3.90
2023-05-08T08:27:29.543Z,3.85
2023-05-08T08:30:15.160Z,4.32
2023-05-08T08:32:47.025Z,4.10
2023-05-08T08:35:17.114Z,3.40
2023-05-08T08:37:49.703Z,3.72
2023-05-08T08:40:19.271Z,3.60
2023-05-08T08:42:49.308Z,3.80
2023-05-08T08:45:18.934Z,4.00
2023-05-08T08:47:48.722Z,3.47
2023-05-08T08:50:19.657Z,3.60
2023-05-08T08:52:59.404Z,3.90
2023-05-08T08:55:29.276Z,4.00
2023-05-08T08:58:15.731Z,4.30
2023-05-08T09:03:15.690Z,3.35
2023-05-08T09:05:47.073Z,4.22
2023-05-08T09:08:21.083Z,3.25
2023-05-08T09:10:50.749Z,4.03
2023-05-08T09:13:20.441Z,3.60
2023-05-08T09:15:50.729Z,4.20
2023-05-08T09:18:20.506Z,3.88
2023-05-08T09:20:50.739Z,4.70
2023-05-08T09:23:23.307Z,3.85
2023-05-08T09:25:53.686Z,4.78
2023-05-08T09:28:25.333Z,4.32
2023-05-08T09:30:56.922Z,3.72
2023-05-08T09:33:28.652Z,4.47
2023-05-08T09:35:58.879Z,4.80
2023-05-08T09:38:39.366Z,4.05
2023-05-08T09:41:10.559Z,4.53
2023-05-08T09:43:40.748Z,4.22
2023-05-08T09:46:24.975Z,5.60
2023-05-08T09:48:56.652Z,5.50
2023-05-08T09:51:26.793Z,5.35
2023-05-08T09:54:00.740Z,4.75
2023-05-08T09:56:35.176Z,5.30
2023-05-08T09:59:06.592Z,4.80
2023-05-08T10:01:39.802Z,4.70
2023-05-08T10:04:09.495Z,4.13
2023-05-08T10:06:39.253Z,4.50
2023-05-08T10:09:15.876Z,3.33
2023-05-08T10:11:55.569Z,4.45
2023-05-08T10:14:26.638Z,4.45
2023-05-08T10:16:57.432Z,3.65
2023-05-08T10:19:28.564Z,4.00
2023-05-08T10:22:00.611Z,4.50
2023-05-08T10:24:36.280Z,4.90
2023-05-08T10:27:12.678Z,4.05
2023-05-08T10:29:48.557Z,4.15
2023-05-08T10:34:52.448Z,3.53
2023-05-08T10:37:22.610Z,5.68
2023-05-08T10:39:56.832Z,4.53
2023-05-08T10:42:26.880Z,4.90
2023-05-08T10:44:56.858Z,5.63
2023-05-08T10:47:33.492Z,5.30
2023-05-08T10:50:13.234Z,5.05
2023-05-08T10:52:50.707Z,5.43
2023-05-08T10:55:28.313Z,4.85
2023-05-08T10:58:15.320Z,5.15
2023-05-08T11:01:15.113Z,4.97
2023-05-08T11:03:51.015Z,4.65
2023-05-08T11:08:54.703Z,3.45
2023-05-08T11:11:33.672Z,4.43
2023-05-08T11:14:16.540Z,4.60
2023-05-08T11:17:07.595Z,5.22
2023-05-08T11:19:37.887Z,4.72
2023-05-08T11:22:18.268Z,4.68
2023-05-08T11:24:52.647Z,4.25
2023-05-08T11:27:34.344Z,5.32
2023-05-08T11:30:26.070Z,5.13
2023-05-08T11:33:00.030Z,3.80
2023-05-08T11:35:46.797Z,3.70
2023-05-08T11:38:34.373Z,4.53
2023-05-08T11:41:05.983Z,5.20
2023-05-08T11:44:14.880Z,4.40
2023-05-08T11:46:46.980Z,4.05
2023-05-08T11:49:23.854Z,4.55
2023-05-08T11:52:00.356Z,4.22
2023-05-08T11:54:33.014Z,3.85
2023-05-08T11:57:03.004Z,4.13
2023-05-08T11:59:38.381Z,4.30
2023-05-08T12:02:09.607Z,4.85
2023-05-08T12:04:49.191Z,5.18
2023-05-08T12:07:18.952Z,4.15
2023-05-08T12:09:49.491Z,3.13
2023-05-08T12:12:19.019Z,5.28
2023-05-08T12:14:54.793Z,3.60
2023-05-08T12:17:24.544Z,4.72
2023-05-08T12:20:04.252Z,3.95
2023-05-08T12:22:33.871Z,4.75
2023-05-08T12:25:03.511Z,4.28
2023-05-08T12:27:33.136Z,3.55
2023-05-08T12:30:09.474Z,4.60
2023-05-08T12:32:40.754Z,3.92
2023-05-08T12:35:11.953Z,4.53
2023-05-08T12:37:42.061Z,3.90
2023-05-08T12:40:28.235Z,3.78
2023-05-08T12:42:58.006Z,4.30
2023-05-08T12:45:33.438Z,4.32
2023-05-08T12:48:04.575Z,3.63
2023-05-08T12:50:37.907Z,3.88
2023-05-08T12:53:08.069Z,3.53
2023-05-08T12:55:39.975Z,3.15
2023-05-08T12:58:15.353Z,3.92
2023-05-08T13:03:26.082Z,3.67
2023-05-08T13:05:57.447Z,3.92
2023-05-08T13:08:33.734Z,3.95
2023-05-08T13:11:04.662Z,3.80
2023-05-08T13:13:35.496Z,3.58
2023-05-08T13:16:09.734Z,3.58
2023-05-08T13:18:40.643Z,4.38
2023-05-08T13:21:10.564Z,3.40
2023-05-08T13:23:40.128Z,3.90
2023-05-08T13:26:09.710Z,4.20
2023-05-08T13:28:39.268Z,4.00
2023-05-08T13:31:11.476Z,4.00
2023-05-08T13:33:41.009Z,3.45
2023-05-08T13:36:11.547Z,4.07
2023-05-08T13:38:41.107Z,3.17
2023-05-08T13:41:10.780Z,3.95
2023-05-08T13:43:40.417Z,3.42
2023-05-08T13:46:12.625Z,4.07
2023-05-08T13:48:42.172Z,3.47
2023-05-08T13:51:11.737Z,3.30
2023-05-08T13:53:41.286Z,4.15
2023-05-08T13:56:11.228Z,3.63
2023-05-08T13:58:41.167Z,4.15
2023-05-08T14:01:25.817Z,4.10
2023-05-08T14:03:56.440Z,3.77
2023-05-08T14:06:26.072Z,3.28
2023-05-08T14:08:57.131Z,2.83
2023-05-08T14:11:27.412Z,3.25
2023-05-08T14:13:56.943Z,3.38
2023-05-08T14:16:29.166Z,3.10
2023-05-08T14:18:58.745Z,3.42
2023-05-08T14:21:28.418Z,3.92
2023-05-08T14:23:57.983Z,3.70
2023-05-08T14:26:27.571Z,3.38
2023-05-08T14:28:57.142Z,3.67
2023-05-08T14:31:29.276Z,4.00
2023-05-08T14:33:58.882Z,3.30
2023-05-08T14:36:28.441Z,3.63
2023-05-08T14:38:57.984Z,3.50
2023-05-08T14:41:30.644Z,3.78
2023-05-08T14:44:01.409Z,3.00
2023-05-08T14:46:33.611Z,2.88
2023-05-08T14:49:03.235Z,3.85
2023-05-08T14:51:32.858Z,3.45
2023-05-08T14:54:02.619Z,3.42
2023-05-08T14:56:44.228Z,3.22
2023-05-08T14:59:16.450Z,3.72
2023-05-08T15:01:48.622Z,3.20
2023-05-08T15:04:18.301Z,3.63
2023-05-08T15:06:48.027Z,4.00
2023-05-08T15:09:18.363Z,3.10
2023-05-08T15:11:47.972Z,3.28
2023-05-08T15:14:17.515Z,2.95
2023-05-08T15:16:49.693Z,3.30
2023-05-08T15:19:19.631Z,3.60
2023-05-08T15:21:49.180Z,3.60
2023-05-08T15:24:18.753Z,3.67
2023-05-08T15:26:48.309Z,3.88
2023-05-08T15:29:17.847Z,3.88
2023-05-08T15:31:49.979Z,4.22
2023-05-08T15:34:19.543Z,5.15
2023-05-08T15:36:49.067Z,2.78
2023-05-08T15:39:18.950Z,3.03
2023-05-08T15:41:48.628Z,2.72
2023-05-08T15:44:18.135Z,3.30
2023-05-08T15:46:50.337Z,2.58
2023-05-08T15:49:20.163Z,3.33
2023-05-08T15:51:49.790Z,3.80
2023-05-08T15:54:19.566Z,3.63
2023-05-08T15:56:49.095Z,3.63
2023-05-08T15:59:18.639Z,3.17
2023-05-08T16:01:52.067Z,3.22
2023-05-08T16:04:22.509Z,2.60
2023-05-08T16:06:52.034Z,3.20
2023-05-08T16:09:21.660Z,2.88
2023-05-08T16:11:51.245Z,4.00
2023-05-08T16:14:20.887Z,3.30
2023-05-08T16:16:52.994Z,3.22
2023-05-08T16:19:22.534Z,2.80
2023-05-08T16:21:52.171Z,3.10
2023-05-08T16:24:21.854Z,3.20
2023-05-08T16:26:51.637Z,3.10
2023-05-08T16:29:21.149Z,3.40
2023-05-08T16:31:53.460Z,3.45
2023-05-08T16:34:23.148Z,3.58
2023-05-08T16:36:52.694Z,2.83
2023-05-08T16:39:22.228Z,3.08
2023-05-08T16:41:51.751Z,2.90
2023-05-08T16:44:21.296Z,2.83
2023-05-08T16:46:53.461Z,3.45
2023-05-08T16:49:23.032Z,3.03
2023-05-08T16:51:52.604Z,2.53
2023-05-08T16:54:22.176Z,2.88
2023-05-08T16:56:51.751Z,3.13
2023-05-08T16:59:21.298Z,2.92
2023-05-08T17:01:53.451Z,2.75
2023-05-08T17:04:23.022Z,3.10
2023-05-08T17:06:52.740Z,2.53
2023-05-08T17:09:22.313Z,3.40
2023-05-08T17:11:51.856Z,3.17
2023-05-08T17:14:22.091Z,2.67
2023-05-08T17:16:54.173Z,2.55
2023-05-08T17:19:23.711Z,3.00
2023-05-08T17:21:53.249Z,2.88
2023-05-08T17:24:22.849Z,2.88
2023-05-08T17:26:52.420Z,3.53
2023-05-08T17:29:22.019Z,3.53
2023-05-08T17:31:54.294Z,2.60
2023-05-08T17:34:24.251Z,3.17
2023-05-08T17:36:55.105Z,2.55
2023-05-08T17:39:25.176Z,3.40
2023-05-08T17:41:55.820Z,3.47
2023-05-08T17:44:25.493Z,3.10
2023-05-08T17:46:57.680Z,3.90
2023-05-08T17:49:27.243Z,2.90
2023-05-08T17:51:57.850Z,3.10
2023-05-08T17:54:27.681Z,3.30
2023-05-08T17:56:57.235Z,3.30
2023-05-08T17:59:26.904Z,3.00
2023-05-08T18:01:59.153Z,3.03
2023-05-08T18:04:29.061Z,2.78
2023-05-08T18:07:01.432Z,3.20
2023-05-08T18:09:31.118Z,3.42
2023-05-08T18:12:02.734Z,3.60
2023-05-08T18:14:32.846Z,3.67
2023-05-08T18:17:05.868Z,3.45
2023-05-08T18:19:35.612Z,3.30
2023-05-08T18:22:05.194Z,3.88
2023-05-08T18:24:34.730Z,3.60
2023-05-08T18:27:04.285Z,3.95
2023-05-08T18:29:33.795Z,4.43
2023-05-08T18:32:06.162Z,3.90
2023-05-08T18:34:35.774Z,3.58
2023-05-08T18:37:05.379Z,4.10
2023-05-08T18:39:34.965Z,3.75
2023-05-08T18:42:04.766Z,3.90
2023-05-08T18:44:34.342Z,3.88
2023-05-08T18:47:06.882Z,4.30
2023-05-08T18:49:36.485Z,4.72
2023-05-08T18:52:06.162Z,4.20
2023-05-08T18:54:35.759Z,4.70
2023-05-08T18:57:05.348Z,4.15
2023-05-08T18:59:34.949Z,4.20
2023-05-08T19:02:07.106Z,4.20
2023-05-08T19:04:36.772Z,4.05
2023-05-08T19:07:06.319Z,4.10
2023-05-08T19:09:36.452Z,4.18
2023-05-08T19:12:06.221Z,4.00
2023-05-08T19:14:35.802Z,4.03
2023-05-08T19:17:07.975Z,4.00
2023-05-08T19:19:37.553Z,4.13
2023-05-08T19:22:07.467Z,4.28
2023-05-08T19:24:37.082Z,4.35
2023-05-08T19:27:06.893Z,4.15
2023-05-08T19:29:36.491Z,4.18
2023-05-08T19:32:08.668Z,4.00
2023-05-08T19:34:39.611Z,3.85
2023-05-08T19:37:09.251Z,3.90
2023-05-08T19:39:38.940Z,4.40
2023-05-08T19:42:10.456Z,4.22
2023-05-08T19:44:40.409Z,3.92
2023-05-08T19:47:12.590Z,3.88
2023-05-08T19:49:42.245Z,4.28
2023-05-08T19:52:11.869Z,4.28
2023-05-08T19:54:41.481Z,4.80
2023-05-08T19:57:11.080Z,4.82
2023-05-08T19:59:40.693Z,4.53
2023-05-08T20:02:12.819Z,4.47
2023-05-08T20:05:10.462Z,4.38
2023-05-08T20:07:31.915Z,4.35
2023-05-08T20:10:01.497Z,4.93
2023-05-08T20:12:31.121Z,4.13
2023-05-08T20:15:00.621Z,4.70
2023-05-08T20:17:32.895Z,4.60
2023-05-08T20:20:02.513Z,4.55
2023-05-08T20:22:32.083Z,4.95
2023-05-08T20:25:04.253Z,5.20
2023-05-08T20:27:34.343Z,4.70
2023-05-08T20:30:03.919Z,4.88
2023-05-08T20:32:36.109Z,4.88
2023-05-08T20:35:06.084Z,5.30
2023-05-08T20:37:35.626Z,5.47
2023-05-08T20:40:05.227Z,5.00
2023-05-08T20:42:34.752Z,5.45
2023-05-08T20:45:04.302Z,4.45
2023-05-08T20:47:36.456Z,5.50
2023-05-08T20:50:07.446Z,5.38
2023-05-08T20:52:38.477Z,5.28
2023-05-08T20:55:11.356Z,5.25
2023-05-08T20:57:41.061Z,5.38
2023-05-08T21:00:12.141Z,5.43
2023-05-08T21:02:44.695Z,5.57
2023-05-08T21:05:14.364Z,5.38
2023-05-08T21:07:44.116Z,5.32
2023-05-08T21:10:14.710Z,5.70
2023-05-08T21:12:45.581Z,5.88
2023-05-08T21:15:15.336Z,5.95
2023-05-08T21:17:47.576Z,5.70
2023-05-08T21:20:17.355Z,5.20
2023-05-08T21:22:50.193Z,5.43
2023-05-08T21:25:21.469Z,5.68
2023-05-08T21:27:51.928Z,5.80
2023-05-08T21:30:22.671Z,5.18
2023-05-08T21:32:54.848Z,5.88
2023-05-08T21:35:24.660Z,5.50
2023-05-08T21:37:54.835Z,5.90
2023-05-08T21:40:24.608Z,6.00
2023-05-08T21:42:54.338Z,6.00
2023-05-08T21:45:24.149Z,6.00
2023-05-08T21:47:56.330Z,6.28
2023-05-08T21:50:25.881Z,5.90
2023-05-08T21:52:56.610Z,5.80
2023-05-08T21:55:26.735Z,5.80
2023-05-08T21:57:56.300Z,5.85
2023-05-08T22:00:27.019Z,6.60
2023-05-08T22:02:59.288Z,6.35
2023-05-08T22:05:28.886Z,6.82
2023-05-08T22:07:58.422Z,6.63
2023-05-08T22:10:28.280Z,6.70
2023-05-08T22:12:57.873Z,6.93
2023-05-08T22:15:30.272Z,7.22
2023-05-08T22:18:03.244Z,7.57
2023-05-08T22:20:33.014Z,6.13
2023-05-08T22:23:02.576Z,6.28
2023-05-08T22:25:32.124Z,6.15
2023-05-08T22:28:01.708Z,6.85
2023-05-08T22:30:31.305Z,6.55
2023-05-08T22:33:04.040Z,6.22
2023-05-08T22:35:34.552Z,6.03
2023-05-08T22:38:04.166Z,6.57
2023-05-08T22:40:33.740Z,6.43
2023-05-08T22:43:03.849Z,6.03
2023-05-08T22:45:34.792Z,6.18
2023-05-08T22:48:07.560Z,6.90
2023-05-08T22:50:38.411Z,6.35
2023-05-08T22:53:08.473Z,6.45
2023-05-08T22:55:38.082Z,6.18
2023-05-08T22:58:08.052Z,6.15
2023-05-08T23:00:37.705Z,6.07
2023-05-08T23:03:09.856Z,6.32
2023-05-08T23:05:39.521Z,6.45
2023-05-08T23:08:09.325Z,5.70
2023-05-08T23:10:38.925Z,5.90
2023-05-08T23:13:08.531Z,6.78
2023-05-08T23:15:38.182Z,7.00
2023-05-08T23:18:10.390Z,6.25
2023-05-08T23:20:39.975Z,6.88
2023-05-08T23:23:10.450Z,7.13
2023-05-08T23:25:40.261Z,7.70
2023-05-08T23:28:09.862Z,7.78
2023-05-08T23:30:39.387Z,7.00
2023-05-08T23:33:11.469Z,7.18
2023-05-08T23:35:41.019Z,7.70
2023-05-08T23:38:10.789Z,7.25
2023-05-08T23:40:40.525Z,6.93
2023-05-08T23:43:10.076Z,7.22
2023-05-08T23:45:39.597Z,7.20
2023-05-08T23:48:12.785Z,7.15
2023-05-08T23:50:43.054Z,7.55
2023-05-08T23:53:12.593Z,7.47
2023-05-08T23:55:42.154Z,8.27
2023-05-08T23:58:17.486Z,7.60
